Time,TemperatureF,DewpointF,PressureIn,WindDirection,WindDirectionDegrees,WindSpeedMPH,WindSpeedGustMPH,Humidity,HourlyPrecipIn,Conditions,Clouds,dailyrainin,SoftwareType,DateUTC
2013-04-06 00:12:00,48.2,43.0,30.13,WNW,290,0.0,0.0,81,0.00,,,0.00,weatherlink.com 1.10,2013-04-06 05:12:00,
2013-04-06 00:27:00,47.7,43.0,30.13,WNW,290,0.0,0.0,82,0.00,,,0.00,weatherlink.com 1.10,2013-04-06 05:27:00,
2013-04-06 00:42:00,47.2,43.0,30.13,WNW,290,0.0,0.0,84,0.00,,,0.00,weatherlink.com 1.10,2013-04-06 05:42:00,
2013-04-06 00:57:00,47.0,42.0,30.13,WNW,290,0.0,0.0,84,0.00,,,0.00,weatherlink.com 1.10,2013-04-06 05:57:00,
2013-04-06 01:12:00,46.7,43.0,30.13,WNW,290,0.0,0.0,85,0.00,,,0.00,weatherlink.com 1.10,2013-04-06 06:12:00,
2013-04-06 01:27:00,46.5,42.0,30.12,WNW,290,0.0,0.0,85,0.00,,,0.00,weatherlink.com 1.10,2013-04-06 06:27:00,
2013-04-06 01:42:00,46.0,42.0,30.12,WNW,290,0.0,0.0,87,0.00,,,0.00,weatherlink.com 1.10,2013-04-06 06:42:00,
2013-04-06 02:12:00,45.0,41.0,30.11,WNW,290,0.0,0.0,87,0.00,,,0.00,weatherlink.com 1.10,2013-04-06 07:12:00,
2013-04-06 02:27:00,44.2,41.0,30.11,WNW,290,0.0,0.0,87,0.00,,,0.00,weatherlink.com 1.10,2013-04-06 07:27:00,
2013-04-06 02:42:00,43.9,41.0,30.11,WNW,290,0.0,0.0,89,0.00,,,0.00,weatherlink.com 1.10,2013-04-06 07:42:00,
2013-04-06 02:57:00,43.9,41.0,30.10,WNW,290,0.0,0.0,90,0.00,,,0.00,weatherlink.com 1.10,2013-04-06 07:57:00,
2013-04-06 03:12:00,44.0,41.0,30.10,WNW,290,0.0,0.0,90,0.00,,,0.00,weatherlink.com 1.10,2013-04-06 08:12:00,
2013-04-06 03:27:00,43.9,42.0,30.09,WNW,290,0.0,0.0,91,0.00,,,0.00,weatherlink.com 1.10,2013-04-06 08:27:00,
2013-04-06 03:42:00,43.8,41.0,30.10,WNW,290,0.0,0.0,89,0.00,,,0.00,weatherlink.com 1.10,2013-04-06 08:42:00,
2013-04-06 03:57:00,43.7,41.0,30.10,WNW,290,0.0,0.0,90,0.00,,,0.00,weatherlink.com 1.10,2013-04-06 08:57:00,
2013-04-06 04:12:00,43.6,41.0,30.09,WNW,290,0.0,0.0,90,0.00,,,0.00,weatherlink.com 1.10,2013-04-06 09:12:00,
2013-04-06 04:27:00,43.3,40.0,30.09,WNW,290,0.0,0.0,89,0.00,,,0.00,weatherlink.com 1.10,2013-04-06 09:27:00,
2013-04-06 04:42:00,43.1,40.0,30.10,WNW,290,0.0,0.0,90,0.00,,,0.00,weatherlink.com 1.10,2013-04-06 09:42:00,
2013-04-06 04:57:00,43.1,40.0,30.10,WNW,290,0.0,0.0,90,0.00,,,0.00,weatherlink.com 1.10,2013-04-06 09:57:00,
2013-04-06 05:12:00,43.4,41.0,30.10,WNW,290,0.0,0.0,91,0.00,,,0.00,weatherlink.com 1.10,2013-04-06 10:12:00,
2013-04-06 05:27:00,43.6,41.0,30.10,WNW,290,0.0,0.0,89,0.00,,,0.00,weatherlink.com 1.10,2013-04-06 10:27:00,
2013-04-06 05:42:00,43.5,41.0,30.10,WNW,290,0.0,0.0,90,0.00,,,0.00,weatherlink.com 1.10,2013-04-06 10:42:00,
2013-04-06 05:57:00,43.3,41.0,30.11,WNW,290,0.0,0.0,90,0.00,,,0.00,weatherlink.com 1.10,2013-04-06 10:57:00,
2013-04-06 06:12:00,43.6,41.0,30.11,WNW,290,0.0,0.0,89,0.00,,,0.00,weatherlink.com 1.10,2013-04-06 11:12:00,
2013-04-06 06:27:00,43.6,41.0,30.11,WNW,290,0.0,0.0,89,0.00,,,0.00,weatherlink.com 1.10,2013-04-06 11:27:00,
2013-04-06 06:42:00,44.4,41.0,30.11,WNW,290,0.0,0.0,86,0.00,,,0.00,weatherlink.com 1.10,2013-04-06 11:42:00,
2013-04-06 06:57:00,44.9,40.0,30.11,WNW,290,0.0,0.0,84,0.00,,,0.00,weatherlink.com 1.10,2013-04-06 11:57:00,
2013-04-06 07:12:00,44.3,40.0,30.12,WNW,290,0.0,0.0,86,0.00,,,0.00,weatherlink.com 1.10,2013-04-06 12:12:00,
2013-04-06 07:27:00,44.6,41.0,30.12,WNW,290,0.0,0.0,87,0.00,,,0.00,weatherlink.com 1.10,2013-04-06 12:27:00,
2013-04-06 07:42:00,46.3,42.0,30.12,WNW,290,0.0,0.0,86,0.00,,,0.00,weatherlink.com 1.10,2013-04-06 12:42:00,
2013-04-06 07:57:00,48.6,43.0,30.13,East,101,0.0,1.0,80,0.00,,,0.00,weatherlink.com 1.10,2013-04-06 12:57:00,
2013-04-06 08:13:00,52.0,43.0,30.12,East,96,0.0,2.0,72,0.00,,,0.00,weatherlink.com 1.10,2013-04-06 13:13:00,
2013-04-06 08:28:00,54.6,43.0,30.13,SSE,159,1.0,2.0,66,0.00,,,0.00,weatherlink.com 1.10,2013-04-06 13:28:00,
2013-04-06 08:43:00,56.7,43.0,30.13,South,180,1.0,6.0,61,0.00,,,0.00,weatherlink.com 1.10,2013-04-06 13:43:00,
2013-04-06 08:58:00,58.0,44.0,30.13,SSE,160,0.0,4.0,59,0.00,,,0.00,weatherlink.com 1.10,2013-04-06 13:58:00,
2013-04-06 09:13:00,59.9,43.0,30.13,ESE,110,1.0,6.0,55,0.00,,,0.00,weatherlink.com 1.10,2013-04-06 14:13:00,
2013-04-06 09:28:00,61.4,44.0,30.13,SSW,193,2.0,2.0,53,0.00,,,0.00,weatherlink.com 1.10,2013-04-06 14:28:00,
2013-04-06 09:43:00,63.4,44.0,30.12,South,170,1.0,4.0,49,0.00,,,0.00,weatherlink.com 1.10,2013-04-06 14:43:00,
2013-04-06 09:58:00,64.0,43.0,30.12,SSW,200,1.0,4.0,47,0.00,,,0.00,weatherlink.com 1.10,2013-04-06 14:58:00,
2013-04-06 10:13:00,65.5,43.0,30.13,SSE,163,1.0,6.0,45,0.00,,,0.00,weatherlink.com 1.10,2013-04-06 15:13:00,
2013-04-06 10:28:00,67.0,44.0,30.13,SW,217,2.0,5.0,44,0.00,,,0.00,weatherlink.com 1.10,2013-04-06 15:28:00,
2013-04-06 10:43:00,68.3,44.0,30.12,SSE,160,2.0,4.0,42,0.00,,,0.00,weatherlink.com 1.10,2013-04-06 15:43:00,
2013-04-06 10:58:00,69.3,43.0,30.12,SW,224,1.0,6.0,39,0.00,,,0.00,weatherlink.com 1.10,2013-04-06 15:58:00,
2013-04-06 11:28:00,70.7,42.0,30.11,SE,142,3.0,9.0,36,0.00,,,0.00,weatherlink.com 1.10,2013-04-06 16:28:00,
2013-04-06 11:58:00,72.1,44.0,30.10,SSW,203,2.0,6.0,36,0.00,,,0.00,weatherlink.com 1.10,2013-04-06 16:58:00,
2013-04-06 12:13:00,72.1,42.0,30.10,SSW,212,3.0,6.0,34,0.00,,,0.00,weatherlink.com 1.10,2013-04-06 17:13:00,
2013-04-06 12:29:00,72.7,43.0,30.09,SSW,198,2.0,6.0,34,0.00,,,0.00,weatherlink.com 1.10,2013-04-06 17:29:00,
2013-04-06 12:44:00,73.1,42.0,30.08,WSW,239,3.0,8.0,33,0.00,,,0.00,weatherlink.com 1.10,2013-04-06 17:44:00,
2013-04-06 12:59:00,74.6,44.0,30.08,WSW,246,2.0,6.0,33,0.00,,,0.00,weatherlink.com 1.10,2013-04-06 17:59:00,
2013-04-06 13:29:00,74.2,42.0,30.07,SSW,197,3.0,7.0,31,0.00,,,0.00,weatherlink.com 1.10,2013-04-06 18:29:00,
2013-04-06 13:44:00,74.3,43.0,30.06,SSW,209,5.0,10.0,32,0.00,,,0.00,weatherlink.com 1.10,2013-04-06 18:44:00,
2013-04-06 13:59:00,75.3,43.0,30.05,SSW,207,3.0,6.0,31,0.00,,,0.00,weatherlink.com 1.10,2013-04-06 18:59:00,
2013-04-06 14:14:00,75.0,41.0,30.05,SSW,193,1.0,7.0,30,0.00,,,0.00,weatherlink.com 1.10,2013-04-06 19:14:00,
2013-04-06 14:29:00,75.8,42.0,30.04,SW,225,2.0,6.0,30,0.00,,,0.00,weatherlink.com 1.10,2013-04-06 19:29:00,
2013-04-06 14:59:00,76.4,44.0,30.01,SSW,207,3.0,6.0,32,0.00,,,0.00,weatherlink.com 1.10,2013-04-06 19:59:00,
2013-04-06 15:14:00,77.1,43.0,30.00,ESE,117,2.0,8.0,30,0.00,,,0.00,weatherlink.com 1.10,2013-04-06 20:14:00,
2013-04-06 15:29:00,77.7,44.0,30.00,SSE,158,2.0,5.0,30,0.00,,,0.00,weatherlink.com 1.10,2013-04-06 20:29:00,
2013-04-06 15:44:00,76.5,43.0,29.98,SSW,211,5.0,6.0,30,0.00,,,0.00,weatherlink.com 1.10,2013-04-06 20:44:00,
2013-04-06 15:59:00,76.6,40.0,29.98,SSE,160,3.0,5.0,27,0.00,,,0.00,weatherlink.com 1.10,2013-04-06 20:59:00,
2013-04-06 16:14:00,77.4,40.0,29.97,WSW,248,4.0,6.0,26,0.00,,,0.00,weatherlink.com 1.10,2013-04-06 21:14:00,
2013-04-06 16:29:00,77.3,40.0,29.96,SW,219,3.0,6.0,26,0.00,,,0.00,weatherlink.com 1.10,2013-04-06 21:29:00,
2013-04-06 16:44:00,77.2,40.0,29.97,SSW,204,3.0,6.0,26,0.00,,,0.00,weatherlink.com 1.10,2013-04-06 21:44:00,
2013-04-06 16:59:00,76.5,39.0,29.96,South,177,2.0,8.0,26,0.00,,,0.00,weatherlink.com 1.10,2013-04-06 21:59:00,
2013-04-06 17:14:00,77.2,40.0,29.96,South,179,3.0,5.0,26,0.00,,,0.00,weatherlink.com 1.10,2013-04-06 22:14:00,
2013-04-06 17:29:00,76.9,38.0,29.95,SSE,166,4.0,7.0,25,0.00,,,0.00,weatherlink.com 1.10,2013-04-06 22:29:00,
2013-04-06 17:44:00,76.7,38.0,29.95,SW,214,2.0,5.0,25,0.00,,,0.00,weatherlink.com 1.10,2013-04-06 22:44:00,
2013-04-06 17:59:00,76.3,40.0,29.95,SW,225,5.0,7.0,27,0.00,,,0.00,weatherlink.com 1.10,2013-04-06 22:59:00,
2013-04-06 18:14:00,76.3,37.0,29.95,North,357,2.0,5.0,24,0.00,,,0.00,weatherlink.com 1.10,2013-04-06 23:14:00,
2013-04-06 18:29:00,75.4,38.0,29.95,SSW,204,2.0,4.0,26,0.00,,,0.00,weatherlink.com 1.10,2013-04-06 23:29:00,
2013-04-06 18:44:00,74.5,37.0,29.95,WSW,238,1.0,5.0,26,0.00,,,0.00,weatherlink.com 1.10,2013-04-06 23:44:00,
2013-04-06 18:59:00,72.6,38.0,29.95,WSW,240,2.0,3.0,28,0.00,,,0.00,weatherlink.com 1.10,2013-04-06 23:59:00,
2013-04-06 19:14:00,70.8,38.0,29.95,SSW,203,2.0,5.0,30,0.00,,,0.00,weatherlink.com 1.10,2013-04-07 00:14:00,
2013-04-06 19:29:00,69.2,38.0,29.95,SW,219,1.0,3.0,32,0.00,,,0.00,weatherlink.com 1.10,2013-04-07 00:29:00,
2013-04-06 19:44:00,68.0,38.0,29.95,SW,215,1.0,4.0,34,0.00,,,0.00,weatherlink.com 1.10,2013-04-07 00:44:00,
2013-04-06 19:59:00,67.0,39.0,29.95,WSW,245,0.0,1.0,36,0.00,,,0.00,weatherlink.com 1.10,2013-04-07 00:59:00,
2013-04-06 20:14:00,65.8,39.0,29.96,WSW,245,0.0,1.0,38,0.00,,,0.00,weatherlink.com 1.10,2013-04-07 01:14:00,
2013-04-06 20:29:00,64.4,40.0,29.97,SW,221,0.0,0.0,41,0.00,,,0.00,weatherlink.com 1.10,2013-04-07 01:29:00,
2013-04-06 20:44:00,63.9,40.0,29.97,SSW,210,0.0,1.0,42,0.00,,,0.00,weatherlink.com 1.10,2013-04-07 01:44:00,
2013-04-06 20:59:00,63.6,41.0,29.97,SSW,205,0.0,1.0,44,0.00,,,0.00,weatherlink.com 1.10,2013-04-07 01:59:00,
2013-04-06 21:14:00,63.1,42.0,29.98,SSW,205,0.0,1.0,46,0.00,,,0.00,weatherlink.com 1.10,2013-04-07 02:14:00,
2013-04-06 21:29:00,62.7,43.0,29.99,SSW,212,0.0,0.0,48,0.00,,,0.00,weatherlink.com 1.10,2013-04-07 02:29:00,
2013-04-06 21:59:00,61.7,43.0,30.00,SSW,210,0.0,0.0,50,0.00,,,0.00,weatherlink.com 1.10,2013-04-07 02:59:00,
2013-04-06 22:14:00,61.0,43.0,30.00,SSW,210,0.0,0.0,51,0.00,,,0.00,weatherlink.com 1.10,2013-04-07 03:14:00,
2013-04-06 22:44:00,58.8,44.0,30.01,South,169,0.0,0.0,58,0.00,,,0.00,weatherlink.com 1.10,2013-04-07 03:44:00,
2013-04-06 23:30:00,57.7,44.0,30.01,South,169,0.0,0.0,60,0.00,,,0.00,weatherlink.com 1.10,2013-04-07 04:30:00,
2013-04-06 23:45:00,59.0,44.0,30.01,SSW,201,0.0,2.0,58,0.00,,,0.00,weatherlink.com 1.10,2013-04-07 04:45:00,